sensor_id;sensor_type;location;lat;lon;timestamp;temperature;humidity
10572;DHT22;5334;48.928;12.704;2022-08-30T00:02:13;17.90;99.90
10572;DHT22;5334;48.928;12.704;2022-08-30T00:04:38;17.70;99.90
10572;DHT22;5334;48.928;12.704;2022-08-30T00:07:04;17.70;99.90
10572;DHT22;5334;48.928;12.704;2022-08-30T00:14:22;17.60;99.90
10572;DHT22;5334;48.928;12.704;2022-08-30T00:19:16;17.60;99.90
10572;DHT22;5334;48.928;12.704;2022-08-30T00:21:41;17.70;99.90
10572;DHT22;5334;48.928;12.704;2022-08-30T00:24:07;17.70;99.90
10572;DHT22;5334;48.928;12.704;2022-08-30T00:26:33;17.70;99.90
10572;DHT22;5334;48.928;12.704;2022-08-30T00:41:08;17.60;99.90
10572;DHT22;5334;48.928;12.704;2022-08-30T00:43:35;17.50;99.90
10572;DHT22;5334;48.928;12.704;2022-08-30T00:46:01;17.50;99.90
10572;DHT22;5334;48.928;12.704;2022-08-30T00:48:32;17.50;99.90
10572;DHT22;5334;48.928;12.704;2022-08-30T00:51:04;17.50;99.90
10572;DHT22;5334;48.928;12.704;2022-08-30T00:53:34;17.40;99.90
10572;DHT22;5334;48.928;12.704;2022-08-30T00:56:02;17.40;99.90
10572;DHT22;5334;48.928;12.704;2022-08-30T00:58:33;17.40;99.90
10572;DHT22;5334;48.928;12.704;2022-08-30T01:01:01;17.40;99.90
10572;DHT22;5334;48.928;12.704;2022-08-30T01:03:27;17.30;99.90
10572;DHT22;5334;48.928;12.704;2022-08-30T01:05:55;17.30;99.90
10572;DHT22;5334;48.928;12.704;2022-08-30T01:08:21;17.20;99.90
10572;DHT22;5334;48.928;12.704;2022-08-30T01:10:48;17.20;99.90
10572;DHT22;5334;48.928;12.704;2022-08-30T01:13:14;17.10;99.90
10572;DHT22;5334;48.928;12.704;2022-08-30T01:15:41;17.10;99.90
10572;DHT22;5334;48.928;12.704;2022-08-30T01:18:08;17.10;99.90
10572;DHT22;5334;48.928;12.704;2022-08-30T01:20:46;17.10;99.90
10572;DHT22;5334;48.928;12.704;2022-08-30T01:23:15;17.10;99.90
10572;DHT22;5334;48.928;12.704;2022-08-30T01:25:44;17.20;99.90
10572;DHT22;5334;48.928;12.704;2022-08-30T01:28:14;17.20;99.90
10572;DHT22;5334;48.928;12.704;2022-08-30T01:30:42;17.20;99.90
10572;DHT22;5334;48.928;12.704;2022-08-30T01:33:09;17.20;99.90
10572;DHT22;5334;48.928;12.704;2022-08-30T01:38:25;17.20;99.90
10572;DHT22;5334;48.928;12.704;2022-08-30T01:40:59;17.10;99.90
10572;DHT22;5334;48.928;12.704;2022-08-30T01:43:26;17.10;99.90
10572;DHT22;5334;48.928;12.704;2022-08-30T01:45:52;17.00;99.90
10572;DHT22;5334;48.928;12.704;2022-08-30T01:48:17;16.90;99.90
10572;DHT22;5334;48.928;12.704;2022-08-30T01:50:43;16.80;99.90
10572;DHT22;5334;48.928;12.704;2022-08-30T01:58:03;16.90;99.90
10572;DHT22;5334;48.928;12.704;2022-08-30T02:02:55;16.50;99.90
10572;DHT22;5334;48.928;12.704;2022-08-30T02:05:22;16.90;99.90
10572;DHT22;5334;48.928;12.704;2022-08-30T02:07:48;16.90;99.90
10572;DHT22;5334;48.928;12.704;2022-08-30T02:10:14;16.90;99.90
10572;DHT22;5334;48.928;12.704;2022-08-30T02:15:06;16.80;99.90
10572;DHT22;5334;48.928;12.704;2022-08-30T02:17:33;16.70;99.90
10572;DHT22;5334;48.928;12.704;2022-08-30T02:19:59;16.70;99.90
10572;DHT22;5334;48.928;12.704;2022-08-30T02:22:24;16.70;99.90
10572;DHT22;5334;48.928;12.704;2022-08-30T02:24:50;16.70;99.90
10572;DHT22;5334;48.928;12.704;2022-08-30T02:27:15;16.60;99.90
10572;DHT22;5334;48.928;12.704;2022-08-30T02:29:42;16.60;99.90
10572;DHT22;5334;48.928;12.704;2022-08-30T02:32:07;16.70;99.90
10572;DHT22;5334;48.928;12.704;2022-08-30T02:34:33;16.60;99.90
10572;DHT22;5334;48.928;12.704;2022-08-30T02:36:59;16.70;99.90
10572;DHT22;5334;48.928;12.704;2022-08-30T02:39:25;16.70;99.90
10572;DHT22;5334;48.928;12.704;2022-08-30T02:41:51;16.70;99.90
10572;DHT22;5334;48.928;12.704;2022-08-30T02:44:16;16.70;99.90
10572;DHT22;5334;48.928;12.704;2022-08-30T02:46:43;16.80;99.90
10572;DHT22;5334;48.928;12.704;2022-08-30T02:49:09;16.80;99.90
10572;DHT22;5334;48.928;12.704;2022-08-30T02:51:35;16.80;99.90
10572;DHT22;5334;48.928;12.704;2022-08-30T02:54:01;16.80;99.90
10572;DHT22;5334;48.928;12.704;2022-08-30T02:56:27;16.80;99.90
10572;DHT22;5334;48.928;12.704;2022-08-30T03:01:19;16.80;99.90
10572;DHT22;5334;48.928;12.704;2022-08-30T03:03:45;16.80;99.90
10572;DHT22;5334;48.928;12.704;2022-08-30T03:06:12;16.70;99.90
10572;DHT22;5334;48.928;12.704;2022-08-30T03:08:38;16.60;99.90
10572;DHT22;5334;48.928;12.704;2022-08-30T03:11:04;16.50;99.90
10572;DHT22;5334;48.928;12.704;2022-08-30T03:13:30;16.50;99.90
10572;DHT22;5334;48.928;12.704;2022-08-30T03:15:56;16.40;99.90
10572;DHT22;5334;48.928;12.704;2022-08-30T03:18:23;16.30;99.90
10572;DHT22;5334;48.928;12.704;2022-08-30T03:20:50;16.40;99.90
10572;DHT22;5334;48.928;12.704;2022-08-30T03:23:16;16.40;99.90
10572;DHT22;5334;48.928;12.704;2022-08-30T03:25:42;16.40;99.90
10572;DHT22;5334;48.928;12.704;2022-08-30T03:28:07;16.50;99.90
10572;DHT22;5334;48.928;12.704;2022-08-30T03:30:33;16.40;99.90
10572;DHT22;5334;48.928;12.704;2022-08-30T03:32:59;16.10;99.90
10572;DHT22;5334;48.928;12.704;2022-08-30T03:35:26;16.10;99.90
10572;DHT22;5334;48.928;12.704;2022-08-30T03:37:52;16.20;99.90
10572;DHT22;5334;48.928;12.704;2022-08-30T03:40:19;16.10;99.90
10572;DHT22;5334;48.928;12.704;2022-08-30T03:42:45;16.10;99.90
10572;DHT22;5334;48.928;12.704;2022-08-30T03:45:12;16.10;99.90
10572;DHT22;5334;48.928;12.704;2022-08-30T03:50:05;15.80;99.90
10572;DHT22;5334;48.928;12.704;2022-08-30T03:52:31;16.00;99.90
10572;DHT22;5334;48.928;12.704;2022-08-30T03:54:57;15.90;99.90
10572;DHT22;5334;48.928;12.704;2022-08-30T03:59:51;15.90;99.90
10572;DHT22;5334;48.928;12.704;2022-08-30T04:02:16;15.90;99.90
10572;DHT22;5334;48.928;12.704;2022-08-30T04:04:42;15.90;99.90
10572;DHT22;5334;48.928;12.704;2022-08-30T04:07:08;15.80;99.90
10572;DHT22;5334;48.928;12.704;2022-08-30T04:09:34;15.80;99.90
10572;DHT22;5334;48.928;12.704;2022-08-30T04:11:59;15.70;99.90
10572;DHT22;5334;48.928;12.704;2022-08-30T04:14:25;15.70;99.90
10572;DHT22;5334;48.928;12.704;2022-08-30T04:16:51;15.70;99.90
10572;DHT22;5334;48.928;12.704;2022-08-30T04:19:16;15.70;99.90
10572;DHT22;5334;48.928;12.704;2022-08-30T04:21:43;15.80;99.90
10572;DHT22;5334;48.928;12.704;2022-08-30T04:24:10;15.70;99.90
10572;DHT22;5334;48.928;12.704;2022-08-30T04:26:36;15.70;99.90
10572;DHT22;5334;48.928;12.704;2022-08-30T04:29:02;15.70;99.90
10572;DHT22;5334;48.928;12.704;2022-08-30T04:31:28;15.70;99.90
10572;DHT22;5334;48.928;12.704;2022-08-30T04:33:54;15.80;99.90
10572;DHT22;5334;48.928;12.704;2022-08-30T04:36:20;15.80;99.90
10572;DHT22;5334;48.928;12.704;2022-08-30T04:38:46;15.90;99.90
10572;DHT22;5334;48.928;12.704;2022-08-30T04:41:14;15.90;99.90
10572;DHT22;5334;48.928;12.704;2022-08-30T04:43:44;15.90;99.90
10572;DHT22;5334;48.928;12.704;2022-08-30T04:46:11;15.90;99.90
10572;DHT22;5334;48.928;12.704;2022-08-30T04:48:38;16.00;99.90
10572;DHT22;5334;48.928;12.704;2022-08-30T04:51:06;16.00;99.90
10572;DHT22;5334;48.928;12.704;2022-08-30T04:53:32;16.00;99.90
10572;DHT22;5334;48.928;12.704;2022-08-30T04:55:58;16.10;99.90
10572;DHT22;5334;48.928;12.704;2022-08-30T04:58:25;16.10;99.90
10572;DHT22;5334;48.928;12.704;2022-08-30T05:00:50;16.20;99.90
10572;DHT22;5334;48.928;12.704;2022-08-30T05:03:16;16.20;99.90
10572;DHT22;5334;48.928;12.704;2022-08-30T05:05:49;16.20;99.90
10572;DHT22;5334;48.928;12.704;2022-08-30T05:08:16;16.20;99.90
10572;DHT22;5334;48.928;12.704;2022-08-30T05:10:46;16.20;99.90
10572;DHT22;5334;48.928;12.704;2022-08-30T05:13:12;16.20;99.90
10572;DHT22;5334;48.928;12.704;2022-08-30T05:15:38;16.20;99.90
10572;DHT22;5334;48.928;12.704;2022-08-30T05:18:07;16.20;99.90
10572;DHT22;5334;48.928;12.704;2022-08-30T05:20:33;16.30;99.90
10572;DHT22;5334;48.928;12.704;2022-08-30T05:23:00;16.40;99.90
10572;DHT22;5334;48.928;12.704;2022-08-30T05:25:29;16.50;99.90
10572;DHT22;5334;48.928;12.704;2022-08-30T05:27:55;16.60;99.90
10572;DHT22;5334;48.928;12.704;2022-08-30T05:30:22;16.80;99.90
10572;DHT22;5334;48.928;12.704;2022-08-30T05:32:48;16.90;99.90
10572;DHT22;5334;48.928;12.704;2022-08-30T05:35:15;17.00;99.90
10572;DHT22;5334;48.928;12.704;2022-08-30T05:37:42;17.20;99.90
10572;DHT22;5334;48.928;12.704;2022-08-30T05:40:08;17.40;99.90
10572;DHT22;5334;48.928;12.704;2022-08-30T05:42:34;17.60;99.90
10572;DHT22;5334;48.928;12.704;2022-08-30T05:45:01;17.70;99.90
10572;DHT22;5334;48.928;12.704;2022-08-30T05:47:27;17.60;99.90
10572;DHT22;5334;48.928;12.704;2022-08-30T05:49:53;17.60;99.90
10572;DHT22;5334;48.928;12.704;2022-08-30T05:52:18;17.60;99.90
10572;DHT22;5334;48.928;12.704;2022-08-30T05:54:45;17.70;99.90
10572;DHT22;5334;48.928;12.704;2022-08-30T05:57:15;18.00;99.90
10572;DHT22;5334;48.928;12.704;2022-08-30T05:59:41;18.30;99.90
10572;DHT22;5334;48.928;12.704;2022-08-30T06:02:07;18.50;99.90
10572;DHT22;5334;48.928;12.704;2022-08-30T06:04:34;18.70;99.90
10572;DHT22;5334;48.928;12.704;2022-08-30T06:07:01;18.90;99.90
10572;DHT22;5334;48.928;12.704;2022-08-30T06:09:27;19.00;99.90
10572;DHT22;5334;48.928;12.704;2022-08-30T06:11:52;19.00;99.90
10572;DHT22;5334;48.928;12.704;2022-08-30T06:14:18;18.90;99.90
10572;DHT22;5334;48.928;12.704;2022-08-30T06:16:44;18.80;99.90
10572;DHT22;5334;48.928;12.704;2022-08-30T06:19:13;18.70;99.90
10572;DHT22;5334;48.928;12.704;2022-08-30T06:21:40;19.10;99.90
10572;DHT22;5334;48.928;12.704;2022-08-30T06:24:08;19.40;99.90
10572;DHT22;5334;48.928;12.704;2022-08-30T06:26:40;19.70;99.90
10572;DHT22;5334;48.928;12.704;2022-08-30T06:29:07;20.00;99.90
10572;DHT22;5334;48.928;12.704;2022-08-30T06:31:33;20.30;99.90
10572;DHT22;5334;48.928;12.704;2022-08-30T06:33:59;20.50;99.90
10572;DHT22;5334;48.928;12.704;2022-08-30T06:36:25;20.80;99.90
10572;DHT22;5334;48.928;12.704;2022-08-30T06:38:53;21.00;99.90
10572;DHT22;5334;48.928;12.704;2022-08-30T06:41:25;21.20;99.90
10572;DHT22;5334;48.928;12.704;2022-08-30T06:43:51;21.20;99.90
10572;DHT22;5334;48.928;12.704;2022-08-30T06:46:21;21.40;99.90
10572;DHT22;5334;48.928;12.704;2022-08-30T06:48:47;21.70;99.90
10572;DHT22;5334;48.928;12.704;2022-08-30T06:51:13;21.80;99.90
10572;DHT22;5334;48.928;12.704;2022-08-30T06:53:39;22.00;99.90
10572;DHT22;5334;48.928;12.704;2022-08-30T06:56:08;22.10;99.90
10572;DHT22;5334;48.928;12.704;2022-08-30T06:58:36;22.20;99.90
10572;DHT22;5334;48.928;12.704;2022-08-30T07:01:03;22.40;99.90
10572;DHT22;5334;48.928;12.704;2022-08-30T07:03:29;22.60;99.90
10572;DHT22;5334;48.928;12.704;2022-08-30T07:05:56;22.70;99.90
10572;DHT22;5334;48.928;12.704;2022-08-30T07:08:23;22.90;99.90
10572;DHT22;5334;48.928;12.704;2022-08-30T07:10:50;23.00;99.90
10572;DHT22;5334;48.928;12.704;2022-08-30T07:15:44;23.20;99.90
10572;DHT22;5334;48.928;12.704;2022-08-30T07:18:12;23.60;99.90
10572;DHT22;5334;48.928;12.704;2022-08-30T07:20:57;23.90;99.90
10572;DHT22;5334;48.928;12.704;2022-08-30T07:23:23;24.10;99.90
10572;DHT22;5334;48.928;12.704;2022-08-30T07:25:49;24.20;99.90
10572;DHT22;5334;48.928;12.704;2022-08-30T07:28:15;24.40;99.90
10572;DHT22;5334;48.928;12.704;2022-08-30T07:30:41;24.50;99.90
10572;DHT22;5334;48.928;12.704;2022-08-30T07:33:07;24.30;99.90
10572;DHT22;5334;48.928;12.704;2022-08-30T07:35:33;24.30;99.90
10572;DHT22;5334;48.928;12.704;2022-08-30T07:37:59;24.50;99.90
10572;DHT22;5334;48.928;12.704;2022-08-30T07:40:25;24.60;99.90
10572;DHT22;5334;48.928;12.704;2022-08-30T07:42:51;24.70;99.90
10572;DHT22;5334;48.928;12.704;2022-08-30T07:45:17;24.70;99.90
10572;DHT22;5334;48.928;12.704;2022-08-30T07:47:43;24.60;99.90
10572;DHT22;5334;48.928;12.704;2022-08-30T07:50:10;24.80;99.90
10572;DHT22;5334;48.928;12.704;2022-08-30T07:52:35;24.90;99.90
10572;DHT22;5334;48.928;12.704;2022-08-30T07:55:01;24.90;99.90
10572;DHT22;5334;48.928;12.704;2022-08-30T07:57:27;24.70;99.90
10572;DHT22;5334;48.928;12.704;2022-08-30T07:59:56;24.40;99.90
10572;DHT22;5334;48.928;12.704;2022-08-30T08:02:21;24.50;99.90
10572;DHT22;5334;48.928;12.704;2022-08-30T08:04:47;24.70;99.90
10572;DHT22;5334;48.928;12.704;2022-08-30T08:07:13;24.80;99.90
10572;DHT22;5334;48.928;12.704;2022-08-30T08:09:39;24.70;99.90
10572;DHT22;5334;48.928;12.704;2022-08-30T08:12:05;24.80;99.90
10572;DHT22;5334;48.928;12.704;2022-08-30T08:14:32;24.90;99.90
10572;DHT22;5334;48.928;12.704;2022-08-30T08:16:59;24.90;99.90
10572;DHT22;5334;48.928;12.704;2022-08-30T08:19:25;25.10;99.90
10572;DHT22;5334;48.928;12.704;2022-08-30T08:21:50;25.00;99.90
10572;DHT22;5334;48.928;12.704;2022-08-30T08:24:22;25.10;99.90
10572;DHT22;5334;48.928;12.704;2022-08-30T08:26:48;25.40;99.90
10572;DHT22;5334;48.928;12.704;2022-08-30T08:29:14;25.40;99.90
10572;DHT22;5334;48.928;12.704;2022-08-30T08:31:40;25.30;99.90
10572;DHT22;5334;48.928;12.704;2022-08-30T08:34:06;25.50;99.90
10572;DHT22;5334;48.928;12.704;2022-08-30T08:36:33;25.40;99.90
10572;DHT22;5334;48.928;12.704;2022-08-30T08:38:59;25.40;99.90
10572;DHT22;5334;48.928;12.704;2022-08-30T08:43:57;25.70;99.90
10572;DHT22;5334;48.928;12.704;2022-08-30T08:46:40;25.70;99.90
10572;DHT22;5334;48.928;12.704;2022-08-30T08:49:09;26.00;99.90
10572;DHT22;5334;48.928;12.704;2022-08-30T08:51:37;26.10;99.90
10572;DHT22;5334;48.928;12.704;2022-08-30T08:54:51;26.10;99.90
10572;DHT22;5334;48.928;12.704;2022-08-30T08:57:17;26.10;99.90
10572;DHT22;5334;48.928;12.704;2022-08-30T08:59:44;26.40;99.90
10572;DHT22;5334;48.928;12.704;2022-08-30T09:02:33;26.90;99.90
10572;DHT22;5334;48.928;12.704;2022-08-30T09:05:02;27.00;99.90
10572;DHT22;5334;48.928;12.704;2022-08-30T09:07:37;27.00;99.90
10572;DHT22;5334;48.928;12.704;2022-08-30T09:10:04;27.00;99.90
10572;DHT22;5334;48.928;12.704;2022-08-30T09:12:30;26.90;99.90
10572;DHT22;5334;48.928;12.704;2022-08-30T09:15:14;26.70;99.90
10572;DHT22;5334;48.928;12.704;2022-08-30T09:17:49;26.70;99.90
10572;DHT22;5334;48.928;12.704;2022-08-30T09:20:40;26.90;99.90
10572;DHT22;5334;48.928;12.704;2022-08-30T09:23:26;27.30;99.90
10572;DHT22;5334;48.928;12.704;2022-08-30T09:31:06;27.70;99.90
10572;DHT22;5334;48.928;12.704;2022-08-30T09:36:22;28.20;99.40
10572;DHT22;5334;48.928;12.704;2022-08-30T09:39:00;28.30;98.40
10572;DHT22;5334;48.928;12.704;2022-08-30T09:41:36;28.00;98.60
10572;DHT22;5334;48.928;12.704;2022-08-30T09:46:53;27.80;98.80
10572;DHT22;5334;48.928;12.704;2022-08-30T09:49:38;28.00;99.00
10572;DHT22;5334;48.928;12.704;2022-08-30T10:00:20;28.60;97.30
10572;DHT22;5334;48.928;12.704;2022-08-30T10:05:57;28.90;96.80
10572;DHT22;5334;48.928;12.704;2022-08-30T10:21:45;28.50;96.10
10572;DHT22;5334;48.928;12.704;2022-08-30T10:24:20;28.70;96.10
10572;DHT22;5334;48.928;12.704;2022-08-30T10:29:24;28.50;95.90
10572;DHT22;5334;48.928;12.704;2022-08-30T10:32:23;28.90;95.40
10572;DHT22;5334;48.928;12.704;2022-08-30T10:37:26;29.00;95.50
10572;DHT22;5334;48.928;12.704;2022-08-30T10:40:06;29.30;94.10
10572;DHT22;5334;48.928;12.704;2022-08-30T10:42:55;29.10;93.40
10572;DHT22;5334;48.928;12.704;2022-08-30T10:45:26;29.30;93.70
10572;DHT22;5334;48.928;12.704;2022-08-30T10:48:06;29.90;92.90
10572;DHT22;5334;48.928;12.704;2022-08-30T10:50:41;29.90;92.40
10572;DHT22;5334;48.928;12.704;2022-08-30T10:53:29;29.80;92.30
10572;DHT22;5334;48.928;12.704;2022-08-30T10:56:06;30.00;92.20
10572;DHT22;5334;48.928;12.704;2022-08-30T10:58:33;30.20;92.20
10572;DHT22;5334;48.928;12.704;2022-08-30T11:04:26;29.90;91.30
10572;DHT22;5334;48.928;12.704;2022-08-30T11:07:01;29.50;91.50
10572;DHT22;5334;48.928;12.704;2022-08-30T11:09:35;30.00;92.60
10572;DHT22;5334;48.928;12.704;2022-08-30T11:12:29;29.40;92.00
10572;DHT22;5334;48.928;12.704;2022-08-30T11:14:56;29.80;93.40
10572;DHT22;5334;48.928;12.704;2022-08-30T11:17:31;30.50;92.20
10572;DHT22;5334;48.928;12.704;2022-08-30T11:20:00;30.50;91.00
10572;DHT22;5334;48.928;12.704;2022-08-30T11:22:30;30.50;91.00
10572;DHT22;5334;48.928;12.704;2022-08-30T11:25:06;30.60;91.70
10572;DHT22;5334;48.928;12.704;2022-08-30T11:35:42;30.00;90.70
10572;DHT22;5334;48.928;12.704;2022-08-30T11:46:33;31.00;86.20
10572;DHT22;5334;48.928;12.704;2022-08-30T12:00:09;30.60;88.20
10572;DHT22;5334;48.928;12.704;2022-08-30T12:10:49;30.40;86.10
10572;DHT22;5334;48.928;12.704;2022-08-30T12:16:01;30.70;84.80
10572;DHT22;5334;48.928;12.704;2022-08-30T12:21:03;31.40;81.50
10572;DHT22;5334;48.928;12.704;2022-08-30T12:23:38;31.80;76.70
10572;DHT22;5334;48.928;12.704;2022-08-30T12:26:28;31.80;78.50
10572;DHT22;5334;48.928;12.704;2022-08-30T12:34:19;32.20;75.90
10572;DHT22;5334;48.928;12.704;2022-08-30T12:36:55;31.70;76.70
10572;DHT22;5334;48.928;12.704;2022-08-30T12:39:34;31.90;77.80
10572;DHT22;5334;48.928;12.704;2022-08-30T12:44:38;33.10;84.70
10572;DHT22;5334;48.928;12.704;2022-08-30T12:47:05;33.20;73.20
10572;DHT22;5334;48.928;12.704;2022-08-30T12:49:35;33.00;70.30
10572;DHT22;5334;48.928;12.704;2022-08-30T12:54:51;32.30;71.20
10572;DHT22;5334;48.928;12.704;2022-08-30T12:57:36;32.00;83.50
10572;DHT22;5334;48.928;12.704;2022-08-30T13:00:05;32.00;72.00
10572;DHT22;5334;48.928;12.704;2022-08-30T13:02:44;32.50;71.80
10572;DHT22;5334;48.928;12.704;2022-08-30T13:10:34;33.00;67.90
10572;DHT22;5334;48.928;12.704;2022-08-30T13:13:03;32.90;68.70
10572;DHT22;5334;48.928;12.704;2022-08-30T13:15:34;33.00;69.20
10572;DHT22;5334;48.928;12.704;2022-08-30T13:18:25;33.30;78.40
10572;DHT22;5334;48.928;12.704;2022-08-30T13:24:03;33.20;81.50
10572;DHT22;5334;48.928;12.704;2022-08-30T13:26:35;32.90;72.00
10572;DHT22;5334;48.928;12.704;2022-08-30T13:29:03;32.60;72.80
10572;DHT22;5334;48.928;12.704;2022-08-30T13:31:30;32.60;69.50
10572;DHT22;5334;48.928;12.704;2022-08-30T13:33:57;32.20;70.40
10572;DHT22;5334;48.928;12.704;2022-08-30T13:36:35;31.70;71.30
10572;DHT22;5334;48.928;12.704;2022-08-30T13:39:02;31.40;72.10
10572;DHT22;5334;48.928;12.704;2022-08-30T13:41:28;31.10;73.10
10572;DHT22;5334;48.928;12.704;2022-08-30T13:43:54;31.10;71.40
10572;DHT22;5334;48.928;12.704;2022-08-30T13:46:21;30.90;72.00
10572;DHT22;5334;48.928;12.704;2022-08-30T13:49:08;31.10;72.50
10572;DHT22;5334;48.928;12.704;2022-08-30T13:51:36;30.90;72.30
10572;DHT22;5334;48.928;12.704;2022-08-30T13:54:02;30.70;72.60
10572;DHT22;5334;48.928;12.704;2022-08-30T13:56:29;30.60;73.30
10572;DHT22;5334;48.928;12.704;2022-08-30T13:58:59;30.50;75.50
10572;DHT22;5334;48.928;12.704;2022-08-30T14:01:26;30.30;81.40
10572;DHT22;5334;48.928;12.704;2022-08-30T14:03:52;30.20;76.50
10572;DHT22;5334;48.928;12.704;2022-08-30T14:06:17;30.10;76.80
10572;DHT22;5334;48.928;12.704;2022-08-30T14:08:43;30.00;78.50
10572;DHT22;5334;48.928;12.704;2022-08-30T14:11:09;29.90;78.20
10572;DHT22;5334;48.928;12.704;2022-08-30T14:13:36;29.80;79.90
10572;DHT22;5334;48.928;12.704;2022-08-30T14:16:05;29.90;80.00
10572;DHT22;5334;48.928;12.704;2022-08-30T14:18:31;29.80;80.20
10572;DHT22;5334;48.928;12.704;2022-08-30T14:20:57;29.80;80.40
10572;DHT22;5334;48.928;12.704;2022-08-30T14:23:24;30.00;80.60
10572;DHT22;5334;48.928;12.704;2022-08-30T14:25:50;30.40;80.50
10572;DHT22;5334;48.928;12.704;2022-08-30T14:28:16;30.30;79.30
10572;DHT22;5334;48.928;12.704;2022-08-30T14:30:42;30.20;78.30
10572;DHT22;5334;48.928;12.704;2022-08-30T14:33:08;30.10;78.30
10572;DHT22;5334;48.928;12.704;2022-08-30T14:35:34;30.00;79.10
10572;DHT22;5334;48.928;12.704;2022-08-30T14:37:59;30.00;79.30
10572;DHT22;5334;48.928;12.704;2022-08-30T14:40:25;29.90;79.50
10572;DHT22;5334;48.928;12.704;2022-08-30T14:42:51;29.80;80.20
10572;DHT22;5334;48.928;12.704;2022-08-30T14:45:17;29.50;81.00
10572;DHT22;5334;48.928;12.704;2022-08-30T14:47:43;29.40;81.80
10572;DHT22;5334;48.928;12.704;2022-08-30T14:50:09;29.30;81.40
10572;DHT22;5334;48.928;12.704;2022-08-30T14:52:34;29.30;81.20
10572;DHT22;5334;48.928;12.704;2022-08-30T14:55:02;29.40;82.50
10572;DHT22;5334;48.928;12.704;2022-08-30T14:57:28;29.80;83.10
10572;DHT22;5334;48.928;12.704;2022-08-30T14:59:54;30.20;81.90
10572;DHT22;5334;48.928;12.704;2022-08-30T15:02:19;30.50;81.20
10572;DHT22;5334;48.928;12.704;2022-08-30T15:04:45;30.70;81.50
10572;DHT22;5334;48.928;12.704;2022-08-30T15:07:11;30.70;80.40
10572;DHT22;5334;48.928;12.704;2022-08-30T15:09:36;30.70;80.40
10572;DHT22;5334;48.928;12.704;2022-08-30T15:12:03;30.70;80.00
10572;DHT22;5334;48.928;12.704;2022-08-30T15:14:30;30.60;80.20
10572;DHT22;5334;48.928;12.704;2022-08-30T15:16:58;30.50;80.00
10572;DHT22;5334;48.928;12.704;2022-08-30T15:19:24;30.40;80.50
10572;DHT22;5334;48.928;12.704;2022-08-30T15:21:50;30.00;81.00
10572;DHT22;5334;48.928;12.704;2022-08-30T15:24:22;29.70;81.70
10572;DHT22;5334;48.928;12.704;2022-08-30T15:26:48;29.40;82.50
10572;DHT22;5334;48.928;12.704;2022-08-30T15:29:16;29.30;82.60
10572;DHT22;5334;48.928;12.704;2022-08-30T15:31:43;29.20;82.50
10572;DHT22;5334;48.928;12.704;2022-08-30T15:34:11;28.90;83.20
10572;DHT22;5334;48.928;12.704;2022-08-30T15:36:37;28.50;84.20
10572;DHT22;5334;48.928;12.704;2022-08-30T15:39:04;28.30;85.00
10572;DHT22;5334;48.928;12.704;2022-08-30T15:41:30;28.10;85.30
10572;DHT22;5334;48.928;12.704;2022-08-30T15:43:57;28.00;86.10
10572;DHT22;5334;48.928;12.704;2022-08-30T15:46:29;27.80;86.10
10572;DHT22;5334;48.928;12.704;2022-08-30T15:49:05;27.60;86.50
10572;DHT22;5334;48.928;12.704;2022-08-30T15:51:33;27.50;86.90
10572;DHT22;5334;48.928;12.704;2022-08-30T15:58:53;27.30;88.10
10572;DHT22;5334;48.928;12.704;2022-08-30T16:01:20;27.20;88.80
10572;DHT22;5334;48.928;12.704;2022-08-30T16:03:45;27.20;89.80
10572;DHT22;5334;48.928;12.704;2022-08-30T16:06:17;27.10;90.00
10572;DHT22;5334;48.928;12.704;2022-08-30T16:08:44;27.10;90.10
10572;DHT22;5334;48.928;12.704;2022-08-30T16:11:12;27.00;90.10
10572;DHT22;5334;48.928;12.704;2022-08-30T16:13:38;27.00;90.40
10572;DHT22;5334;48.928;12.704;2022-08-30T16:16:06;27.00;90.60
10572;DHT22;5334;48.928;12.704;2022-08-30T16:18:32;27.00;90.80
10572;DHT22;5334;48.928;12.704;2022-08-30T16:21:18;27.10;90.40
10572;DHT22;5334;48.928;12.704;2022-08-30T16:23:44;27.20;90.60
10572;DHT22;5334;48.928;12.704;2022-08-30T16:26:11;27.10;91.00
10572;DHT22;5334;48.928;12.704;2022-08-30T16:28:37;27.20;90.90
10572;DHT22;5334;48.928;12.704;2022-08-30T16:31:05;27.20;91.10
10572;DHT22;5334;48.928;12.704;2022-08-30T16:33:31;27.10;91.30
10572;DHT22;5334;48.928;12.704;2022-08-30T16:35:57;27.10;91.40
10572;DHT22;5334;48.928;12.704;2022-08-30T16:38:24;27.00;91.80
10572;DHT22;5334;48.928;12.704;2022-08-30T16:40:50;27.00;92.10
10572;DHT22;5334;48.928;12.704;2022-08-30T16:43:16;26.90;92.60
10572;DHT22;5334;48.928;12.704;2022-08-30T16:45:42;26.80;92.40
10572;DHT22;5334;48.928;12.704;2022-08-30T16:48:09;26.80;92.90
10572;DHT22;5334;48.928;12.704;2022-08-30T16:50:40;26.70;93.20
10572;DHT22;5334;48.928;12.704;2022-08-30T16:53:07;26.60;93.00
10572;DHT22;5334;48.928;12.704;2022-08-30T16:55:33;26.50;93.10
10572;DHT22;5334;48.928;12.704;2022-08-30T16:58:02;26.40;93.20
10572;DHT22;5334;48.928;12.704;2022-08-30T17:00:29;26.30;93.50
10572;DHT22;5334;48.928;12.704;2022-08-30T17:02:55;26.20;93.70
10572;DHT22;5334;48.928;12.704;2022-08-30T17:05:22;26.20;94.00
10572;DHT22;5334;48.928;12.704;2022-08-30T17:07:48;26.10;94.30
10572;DHT22;5334;48.928;12.704;2022-08-30T17:10:13;26.00;94.50
10572;DHT22;5334;48.928;12.704;2022-08-30T17:12:39;25.90;94.90
10572;DHT22;5334;48.928;12.704;2022-08-30T17:15:05;25.80;94.90
10572;DHT22;5334;48.928;12.704;2022-08-30T17:17:31;25.80;95.70
10572;DHT22;5334;48.928;12.704;2022-08-30T17:19:57;25.70;95.30
10572;DHT22;5334;48.928;12.704;2022-08-30T17:22:23;25.60;95.80
10572;DHT22;5334;48.928;12.704;2022-08-30T17:27:17;25.50;96.00
10572;DHT22;5334;48.928;12.704;2022-08-30T17:29:42;25.40;96.60
10572;DHT22;5334;48.928;12.704;2022-08-30T17:32:08;25.30;96.70
10572;DHT22;5334;48.928;12.704;2022-08-30T17:34:34;25.20;96.60
10572;DHT22;5334;48.928;12.704;2022-08-30T17:37:00;25.10;97.10
10572;DHT22;5334;48.928;12.704;2022-08-30T17:39:27;25.00;97.30
10572;DHT22;5334;48.928;12.704;2022-08-30T17:41:53;24.90;97.60
10572;DHT22;5334;48.928;12.704;2022-08-30T17:44:20;24.80;97.60
10572;DHT22;5334;48.928;12.704;2022-08-30T17:46:48;24.80;97.90
10572;DHT22;5334;48.928;12.704;2022-08-30T17:49:14;24.70;97.90
10572;DHT22;5334;48.928;12.704;2022-08-30T17:51:41;24.60;98.10
10572;DHT22;5334;48.928;12.704;2022-08-30T17:54:08;24.50;98.30
10572;DHT22;5334;48.928;12.704;2022-08-30T17:56:33;24.50;98.50
10572;DHT22;5334;48.928;12.704;2022-08-30T17:58:59;24.40;98.50
10572;DHT22;5334;48.928;12.704;2022-08-30T18:01:25;24.30;98.80
10572;DHT22;5334;48.928;12.704;2022-08-30T18:03:50;24.30;99.00
10572;DHT22;5334;48.928;12.704;2022-08-30T18:06:17;24.20;99.20
10572;DHT22;5334;48.928;12.704;2022-08-30T18:08:43;24.10;99.40
10572;DHT22;5334;48.928;12.704;2022-08-30T18:11:09;24.10;99.70
10572;DHT22;5334;48.928;12.704;2022-08-30T18:13:34;24.00;99.80